Terminal Aerodrome Forecast
Issued by NWS

Home | Current Version | Previous Version | Graphics & Text | Print | Product List | Glossary On
Versions: 1 2 3 4 5 6 7 8 9 10 11 12 13 14 15 16 17 18 19 20 21 22
000
FTUS41 KCLE 291055 AAB
TAFFDY
TAF AMD
KFDY 291055Z 2911/3006 03006KT 2SM BR BKN002
      TEMPO 2911/2912 1/2SM FG VV002
     FM291400 05008KT 5SM BR SCT012
     FM291500 05008KT P6SM SKC
     FM292300 05003KT P6SM SCT250=

USA.gov is the U.S. government's official web portal to all federal, state and local government web resources and services.